Latest Coastal Weather Observations for Port Hedland

IDW60701

Issued at 4:41 am WST Sunday 1 May 2016 (issued every 10 minutes, with the page automatically refreshed every 10 minutes)

About coastal observations | Map of coastal stations | Coastal observations for WA | Marine services | Other Formats
Station Details ID: 004032 Name: PORT HEDLAND AIRPORT Lat: -20.37 Lon: 118.63 Height: 6.4 m
Data from the previous 72 hours. | See also: Recent months at Port Hedland
Date/Time
WST
Temp

°C
Wind Pressure Rain
since 9am
mm
Weather Cloud Vis
km
Sea
Height
m
Swell
Dir
 
Speed
knots
Gust
knots
hPa Trend Height
m
Period
s
Dir
01/04:30am - - - - - - - - - - - - - -
01/04:00am - - - - - - - - - - - - - -
01/03:30am - - - - - - - - - - - - - -
01/03:00am - - - - - - - - - - - - - -
01/02:30am - - - - - - - - - - - - - -
01/02:00am - - - - - - - - - - - - - -
01/01:30am - - - - - - - - - - - - - -
01/01:00am - - - - - - - - - - - - - -
01/12:30am - - - - - - - - - - - - - -
01/12:00am - - - - - - - - - - - - - -
 
Date/Time
WST
Temp

°C
Wind Pressure Rain
since 9am
mm
Weather Cloud Vis
km
Sea
Height
m
Swell
Dir
 
Speed
knots
Gust
knots
hPa Trend Height
m
Period
s
Dir
30/11:30pm - - - - - - - - - - - - - -
30/11:00pm - - - - - - - - - - - - - -
30/10:30pm - - - - - - - - - - - - - -
30/10:00pm - - - - - - - - - - - - - -
30/09:30pm - - - - - - - - - - - - - -
30/09:00pm - - - - - - - - - - - - - -
30/08:30pm 25.9 NNW 5 6 1012.7 - 0.0 - - 10 - - - -
30/08:00pm 26.4 N 5 5 1012.4 - 0.0 - - 10 - - - -
30/07:30pm 26.4 N 6 6 1012.2 - 0.0 - - 10 - - - -
30/07:00pm 26.9 N 5 6 1012.0 - 0.0 - - 10 - - - -
30/06:30pm 27.3 N 5 7 1011.6 - 0.0 - - 10 - - - -
30/06:00pm 27.8 N 7 8 1011.2 - 0.0 - - 10 - - - -
30/05:30pm 28.5 N 8 10 1011.0 - 0.0 - - 10 - - - -
30/05:00pm 29.4 NNW 8 10 1010.6 - 0.0 - - 10 - - - -
30/04:30pm 29.7 NNW 7 11 1010.5 - 0.0 - - 10 - - - -
30/04:00pm 30.1 NNW 8 11 1010.4 - 0.0 - - 10 - - - -
30/03:30pm 30.6 NNW 10 14 1010.4 - 0.0 - - 10 - - - -
30/03:00pm 31.4 NNW 9 13 1010.3 - 0.0 - - 10 - - - -
30/02:30pm 31.4 NNW 11 14 1010.5 - 0.0 - - 10 - - - -
30/02:00pm 31.1 NNW 11 15 1010.7 - 0.0 - - 10 - - - -
30/01:30pm 31.0 NNW 9 14 1011.2 - 0.0 - - 10 - - - -
30/01:00pm 30.8 N 7 12 1011.7 - 0.0 - - 10 - - - -
30/12:30pm 31.7 NW 9 12 1012.1 - 0.0 - - 10 - - - -
30/12:00pm 31.2 N 9 14 1012.1 - 0.0 - - 10 - - - -
30/11:30am 30.6 NNW 7 11 1012.6 - 0.0 - - 10 - - - -
30/11:00am 30.6 N 9 13 1012.9 - 0.0 - - 10 - - - -
30/10:30am 30.5 NW 7 11 1013.2 - 0.0 - - 10 - - - -
30/10:00am 30.1 N 8 11 1013.5 - 0.0 - Partly cloudy 10 - - - -
30/09:30am 30.0 N 6 11 1013.6 - 0.0 - Partly cloudy 10 - - - -
30/09:00am 29.4 WNW 5 8 1013.3 - 0.0 - - 10 - - - -
30/08:30am 28.2 S 4 5 1013.3 - 0.0 - - 10 - - - -
30/08:00am 27.2 SSE 5 7 1013.3 - 0.0 - - 10 - - - -
30/07:30am 25.1 SSE 5 7 1013.1 - 0.0 - - 10 - - - -
30/07:00am 23.4 SSE 5 6 1012.9 - 0.0 - - 10 - - - -
30/06:30am 23.1 SE 4 4 1012.5 - 0.0 - - 10 - - - -
30/06:00am 22.7 SE 3 5 1012.3 - 0.0 - - 10 - - - -
30/05:30am 22.7 SE 3 4 1012.1 - 0.0 - - 10 - - - -
30/05:00am 22.3 SSE 3 4 1011.9 - 0.0 - - 10 - - - -
30/04:30am 22.3 SSE 5 6 1011.6 - 0.0 - - 10 - - - -
30/04:00am 22.5 SSE 4 5 1011.4 - 0.0 - - 10 - - - -
30/03:30am 23.0 S 3 4 1011.4 - 0.0 - - 10 - - - -
30/03:00am 23.1 S 4 5 1011.3 - 0.0 - - 10 - - - -
30/02:30am 23.5 S 4 5 1011.4 - 0.0 - - 10 - - - -
30/02:00am 23.4 S 4 5 1011.3 - 0.0 - - 10 - - - -
30/01:30am 23.6 SSW 5 6 1011.1 - 0.0 - - 10 - - - -
30/01:00am 23.9 CALM 0 3 1011.1 - 0.0 - - 10 - - - -
30/12:30am 24.3 N 5 6 1011.4 - 0.0 - - 10 - - - -
30/12:00am 25.1 N 6 7 1011.3 - 0.0 - - 10 - - - -
 
Date/Time
WST
Temp

°C
Wind Pressure Rain
since 9am
mm
Weather Cloud Vis
km
Sea
Height
m
Swell
Dir
 
Speed
knots
Gust
knots
hPa Trend Height
m
Period
s
Dir
29/11:30pm 25.3 N 7 7 1011.7 - 0.0 - - 10 - - - -
29/11:00pm 25.3 N 6 7 1011.9 - 0.0 - - 10 - - - -
29/10:30pm 25.9 N 6 6 1012.0 - 0.0 - - 10 - - - -
29/10:00pm 25.2 N 5 5 1012.2 - 0.0 - - 10 - - - -
29/09:30pm 25.3 WNW 3 4 1012.3 - 0.0 - - 10 - - - -
29/09:00pm 25.1 WNW 5 6 1012.3 - 0.0 - - 10 - - - -
29/08:30pm 25.6 NW 6 7 1012.2 - 0.0 - - 10 - - - -
29/08:00pm 26.0 WNW 6 7 1012.1 - 0.0 - - 10 - - - -
29/07:30pm 26.4 NW 6 7 1011.7 - 0.0 - - 10 - - - -
29/07:00pm 27.0 NW 6 7 1011.4 - 0.0 - - 10 - - - -
29/06:30pm 27.8 NW 8 10 1011.2 - 0.0 - - 10 - - - -
29/06:00pm 28.3 NW 10 13 1010.9 - 0.0 - - 10 - - - -
29/05:30pm 29.1 NNW 10 13 1010.8 - 0.0 - - 10 - - - -
29/05:00pm 30.0 NNW 11 15 1010.5 - 0.0 - - 10 - - - -
29/04:30pm 30.6 NNW 13 15 1010.3 - 0.0 - - 10 - - - -
29/04:00pm 31.4 NNW 13 15 1010.0 - 0.0 - - 10 - - - -
29/03:30pm 32.1 NNW 13 17 1009.9 - 0.0 - - 10 - - - -
29/03:00pm 32.5 NNW 12 15 1009.9 - 0.0 - - 10 - - - -
29/02:30pm 32.8 NNW 11 15 1009.8 - 0.0 - - 10 - - - -
29/02:00pm 32.0 N 12 15 1009.8 - 0.0 - - 10 - - - -
29/01:30pm 32.5 N 12 16 1009.9 - 0.0 - - 10 - - - -
29/01:00pm 33.4 NNW 11 15 1010.4 - 0.0 - - 10 - - - -
29/12:30pm 33.5 NNW 11 14 1010.6 - 0.0 - - 10 - - - -
29/12:00pm 33.2 N 9 11 1010.8 - 0.0 - - 10 - - - -
29/11:30am 32.2 N 8 12 1011.2 - 0.0 - - 10 - - - -
29/11:00am 32.1 NNE 8 10 1011.7 - 0.0 - - 10 - - - -
29/10:30am 31.7 N 8 11 1011.8 - 0.0 - - 10 - - - -
29/10:00am 31.1 N 10 11 1012.1 - 0.0 - - 10 - - - -
29/09:30am 30.4 NE 11 13 1012.2 - 0.0 - - 10 - - - -
29/09:00am 29.3 NE 6 9 1012.1 - 0.0 - - 10 - - - -
29/08:30am 28.3 ENE 5 6 1012.1 - 0.0 - - 10 - - - -
29/08:00am 26.6 E 4 6 1011.6 - 0.0 - - 10 - - - -
29/07:30am 24.0 ESE 4 5 1011.3 - 0.0 - - 10 - - - -
29/07:00am 23.0 ESE 5 6 1011.1 - 0.0 - - 10 - - - -
29/06:30am 22.7 ESE 6 6 1011.0 - 0.0 - - 10 - - - -
29/06:00am 22.1 E 5 6 1010.7 - 0.0 - - 10 - - - -
29/05:30am 22.5 ESE 4 5 1010.7 - 0.0 - - 10 - - - -
29/05:00am 21.7 ESE 3 4 1010.5 - 0.0 - - 10 - - - -
29/04:30am 21.4 SE 3 4 1010.4 - 0.0 - - 10 - - - -
29/04:00am 22.6 SW 4 5 1010.1 - 0.0 - - 10 - - - -
29/03:30am 22.5 W 7 7 1009.8 - 0.0 - - 10 - - - -
29/03:00am 22.7 W 6 7 1009.7 - 0.0 - - 10 - - - -
29/02:30am 23.1 W 4 5 1009.8 - 0.0 - - 10 - - - -
29/02:00am 23.6 W 2 5 1009.8 - 0.0 - - 10 - - - -
29/01:30am 22.8 CALM 0 3 1010.0 - 0.0 - - 10 - - - -
29/01:00am 23.8 W 4 4 1010.1 - 0.0 - - 10 - - - -
29/12:30am 23.8 W 6 7 1010.3 - 0.0 - - 10 - - - -
29/12:00am 24.1 WNW 6 7 1010.3 - 0.0 - - 10 - - - -
 
Date/Time
WST
Temp

°C
Wind Pressure Rain
since 9am
mm
Weather Cloud Vis
km
Sea
Height
m
Swell
Dir
 
Speed
knots
Gust
knots
hPa Trend Height
m
Period
s
Dir
28/11:30pm 24.6 WNW 5 6 1010.4 - 0.0 - - 10 - - - -
28/11:00pm 24.6 WNW 7 7 1010.6 - 0.0 - - 10 - - - -
28/10:30pm 24.9 WNW 7 7 1010.8 - 0.0 - - 10 - - - -
28/10:00pm 25.5 WNW 7 7 1010.9 - 0.0 - - 10 - - - -
28/09:30pm 26.0 WNW 7 8 1010.9 - 0.0 - - 10 - - - -
28/09:00pm 26.8 WNW 8 10 1010.8 - 0.0 - - 10 - - - -
28/08:30pm 27.1 WNW 9 11 1010.9 - 0.0 - - 10 - - - -
28/08:00pm 27.5 WNW 9 11 1010.7 - 0.0 - - 10 - - - -
28/07:30pm 27.8 WNW 10 12 1010.4 - 0.0 - - 10 - - - -
28/07:00pm 28.3 WNW 11 13 1010.1 - 0.0 - - 10 - - - -
28/06:30pm 28.7 WNW 12 15 1009.9 - 0.0 - - 10 - - - -
28/06:00pm 29.1 NW 11 14 1009.4 - 0.0 - - 10 - - - -
28/05:30pm 30.5 WNW 13 17 1009.1 - 0.0 - - 10 - - - -
28/05:00pm 32.1 WNW 14 17 1009.0 - 0.0 - - 10 - - - -
28/04:30pm 33.1 NW 16 19 1008.8 - 0.0 - - 10 - - - -
28/04:00pm 33.9 NW 15 19 1008.6 - 0.0 - - 10 - - - -
28/03:30pm 34.7 NW 14 18 1008.4 - 0.0 - - 10 - - - -
28/03:00pm 34.1 NW 16 19 1008.2 - 0.0 - - 10 - - - -
28/02:30pm 34.4 NW 17 20 1008.4 - 0.0 - - 10 - - - -
28/02:00pm 34.7 NW 16 20 1008.4 - 0.0 - - 10 - - - -
28/01:30pm 36.7 NW 15 19 1008.5 - 0.0 - - 10 - - - -
28/01:00pm 37.3 WSW 11 16 1008.9 - 0.0 - - 10 - - - -
28/12:30pm 36.8 SSW 7 15 1009.3 - 0.0 - - 10 - - - -
28/12:00pm 36.4 SW 10 16 1009.8 - 0.0 - - 10 - - - -
28/11:30am 35.4 S 9 15 1010.4 - 0.0 - - 10 - - - -
28/11:00am 35.2 SSW 7 11 1011.0 - 0.0 - - 10 - - - -
28/10:30am 33.5 SW 6 9 1011.4 - 0.0 - - 10 - - - -
28/10:00am 32.6 S 4 8 1011.7 - 0.0 - - 10 - - - -
28/09:30am 31.3 S 5 8 1011.9 - 0.0 - - 10 - - - -
28/09:00am 30.4 SSW 7 9 1011.6 - 0.0 - - 10 - - - -
28/08:30am 28.4 SSW 6 7 1011.7 - 0.0 - - 10 - - - -
28/08:00am 26.6 SW 5 6 1011.4 - 0.0 - - 10 - - - -
28/07:30am 24.5 SSW 4 4 1011.1 - 0.0 - - 10 - - - -
28/07:00am 23.4 SSW 4 5 1011.1 - 0.0 - - 10 - - - -
28/06:30am 22.3 S 4 5 1010.7 - 0.0 - - 10 - - - -
28/06:00am 22.5 CALM 0 0 1010.3 - 0.0 - - 10 - - - -
28/05:30am 22.6 SSW 1 3 1010.2 - 0.0 - - 10 - - - -
28/05:00am 23.3 SW 4 5 1010.0 - 0.0 - - 10 - - - -

Other Formats:

Comma delimited format used in spreadsheet applications
http://www.bom.gov.au/fwo/IDW60701/IDW60701.94312.axf

JavaScript Object Notation format (JSON) in row-major order
http://www.bom.gov.au/fwo/IDW60701/IDW60701.94312.json